Time;durP1;ratioP1;P1;durP2;ratioP2;P2;SDS_P1;SDS_P2;PMS_P1;PMS_P2;Temp;Humidity;BMP_temperature;BMP_pressure;BME280_temperature;BME280_humidity;BME280_pressure;Samples;Min_cycle;Max_cycle;Signal;HPM_P1;HPM_P2
2023/08/12 00:01:09;;;;;;;61.90;34.53;;;20.80;99.90;;;;;;5071378;28;20892;-73
2023/08/12 00:03:35;;;;;;;55.00;33.30;;;20.90;99.90;;;;;;5071173;28;20454;-74
2023/08/12 00:06:01;;;;;;;57.73;33.77;;;20.90;99.90;;;;;;5071032;28;20372;-72
2023/08/12 00:08:27;;;;;;;63.43;36.00;;;20.80;99.90;;;;;;5070673;28;20722;-72
2023/08/12 00:10:52;;;;;;;62.70;35.63;;;20.70;99.90;;;;;;5070516;28;20395;-72
2023/08/12 00:13:18;;;;;;;53.50;32.88;;;20.70;99.90;;;;;;5070784;28;20380;-72
2023/08/12 00:15:44;;;;;;;59.13;34.00;;;20.60;99.90;;;;;;5070699;28;20399;-72
2023/08/12 00:18:10;;;;;;;54.78;34.72;;;20.60;99.90;;;;;;5070435;28;20429;-73
2023/08/12 00:20:37;;;;;;;48.87;31.53;;;20.60;99.90;;;;;;5070327;28;20800;-73
2023/08/12 00:23:03;;;;;;;59.35;36.33;;;20.60;99.90;;;;;;5070683;28;20739;-73
2023/08/12 00:25:29;;;;;;;54.28;33.17;;;20.60;99.90;;;;;;5070426;28;20384;-74
2023/08/12 00:27:55;;;;;;;60.70;35.00;;;20.60;99.90;;;;;;5070773;28;20390;-74
2023/08/12 00:30:20;;;;;;;65.03;35.53;;;20.60;99.90;;;;;;5070611;28;20371;-74
2023/08/12 00:32:46;;;;;;;55.80;33.77;;;20.60;99.90;;;;;;5070746;28;20744;-74
2023/08/12 00:35:11;;;;;;;59.10;34.30;;;20.80;99.90;;;;;;5070649;28;20380;-74
2023/08/12 00:37:37;;;;;;;59.28;34.92;;;20.80;99.90;;;;;;5070838;28;20377;-74
2023/08/12 00:40:03;;;;;;;53.53;33.97;;;20.70;99.90;;;;;;5070504;28;20390;-74
2023/08/12 00:42:29;;;;;;;57.47;34.55;;;20.70;99.90;;;;;;5070685;28;20441;-73
2023/08/12 00:44:54;;;;;;;68.20;36.95;;;20.60;99.90;;;;;;5070608;28;20419;-72
2023/08/12 00:47:21;;;;;;;60.63;34.40;;;20.60;99.90;;;;;;5070376;28;20395;-72
2023/08/12 00:49:47;;;;;;;66.22;35.92;;;20.60;99.90;;;;;;5070488;28;20494;-73
2023/08/12 00:52:14;;;;;;;59.45;34.15;;;20.50;99.90;;;;;;5070756;28;20392;-73
2023/08/12 00:54:40;;;;;;;60.70;34.95;;;20.50;99.90;;;;;;5070373;28;20388;-72
2023/08/12 00:57:06;;;;;;;57.07;34.77;;;20.50;99.90;;;;;;5072876;28;20396;-73
2023/08/12 00:59:34;;;;;;;56.53;34.70;;;20.50;99.90;;;;;;5072317;28;20375;-77
2023/08/12 01:02:00;;;;;;;64.88;36.15;;;20.50;99.90;;;;;;5070894;28;20417;-76
2023/08/12 01:04:27;;;;;;;63.47;36.25;;;20.50;99.90;;;;;;5070777;28;20388;-76
2023/08/12 01:06:52;;;;;;;60.70;35.55;;;20.50;99.90;;;;;;5071126;28;20466;-75
2023/08/12 01:09:18;;;;;;;68.70;36.85;;;20.40;99.90;;;;;;5070708;28;20911;-76
2023/08/12 01:11:59;;;;;;;67.50;36.97;;;20.50;99.90;;;;;;5072052;28;20376;-76
2023/08/12 01:14:38;;;;;;;62.10;36.35;;;20.50;99.90;;;;;;5071168;28;20379;-74
2023/08/12 01:17:07;;;;;;;61.50;36.70;;;20.60;99.90;;;;;;5071163;28;20753;-75
2023/08/12 01:19:38;;;;;;;62.72;36.42;;;20.50;99.90;;;;;;5070521;28;20776;-74
2023/08/12 01:22:08;;;;;;;66.30;37.47;;;20.50;99.90;;;;;;5069546;28;20388;-76
2023/08/12 01:24:38;;;;;;;66.32;38.13;;;20.50;99.90;;;;;;5078989;28;20367;-76
2023/08/12 01:27:05;;;;;;;57.92;35.28;;;20.50;99.90;;;;;;5082889;28;20384;-76
2023/08/12 01:29:32;;;;;;;63.40;36.38;;;20.50;99.90;;;;;;5083602;28;20380;-76
2023/08/12 01:32:28;;;;;;;61.85;35.03;;;20.50;99.90;;;;;;5077874;28;20391;-76
2023/08/12 01:35:13;;;;;;;57.87;34.93;;;20.50;99.90;;;;;;5070192;28;20742;-75
2023/08/12 01:37:40;;;;;;;55.30;34.38;;;20.50;99.90;;;;;;5070359;28;20376;-74
2023/08/12 01:40:09;;;;;;;56.53;34.42;;;20.50;99.90;;;;;;5074481;28;20376;-74
2023/08/12 01:42:35;;;;;;;59.10;34.80;;;20.50;99.90;;;;;;5072899;28;20384;-74
2023/08/12 01:45:02;;;;;;;57.05;34.30;;;20.50;99.90;;;;;;5074201;28;20376;-75
2023/08/12 01:47:28;;;;;;;55.80;32.72;;;20.50;99.90;;;;;;5074213;28;20953;-74
2023/08/12 01:49:54;;;;;;;65.78;34.88;;;20.40;99.90;;;;;;5074718;28;20383;-75
2023/08/12 01:52:20;;;;;;;70.80;36.17;;;20.40;99.90;;;;;;5074073;28;20402;-75
2023/08/12 01:54:46;;;;;;;59.77;33.57;;;20.30;99.90;;;;;;5073848;28;20375;-74
2023/08/12 01:57:12;;;;;;;57.92;34.33;;;20.30;99.90;;;;;;5073600;28;20395;-75
2023/08/12 01:59:38;;;;;;;65.28;34.83;;;20.30;99.90;;;;;;5074475;28;20387;-76
2023/08/12 02:02:04;;;;;;;59.70;34.60;;;20.30;99.90;;;;;;5075142;28;20387;-74
2023/08/12 02:04:30;;;;;;;59.13;34.27;;;20.30;99.90;;;;;;5073955;28;20384;-75
2023/08/12 02:06:57;;;;;;;54.88;33.17;;;20.20;99.90;;;;;;5074018;28;20477;-76
2023/08/12 02:09:23;;;;;;;53.60;33.00;;;20.30;99.90;;;;;;5072356;28;20395;-75
2023/08/12 02:11:49;;;;;;;60.35;34.08;;;20.40;99.90;;;;;;5073583;28;20396;-75
2023/08/12 02:14:15;;;;;;;54.90;32.27;;;20.30;99.90;;;;;;5073697;28;20387;-75
2023/08/12 02:16:41;;;;;;;57.15;33.03;;;20.30;99.90;;;;;;5073577;28;20404;-74
2023/08/12 02:19:06;;;;;;;52.33;31.20;;;20.40;99.90;;;;;;5073462;28;20383;-74
2023/08/12 02:21:32;;;;;;;54.67;32.30;;;20.40;99.90;;;;;;5073587;28;20435;-76
2023/08/12 02:23:58;;;;;;;49.90;30.37;;;20.30;99.90;;;;;;5074597;28;20440;-74
2023/08/12 02:26:23;;;;;;;47.73;29.50;;;20.30;99.90;;;;;;5073515;28;20444;-76
2023/08/12 02:28:49;;;;;;;47.72;27.17;;;20.30;99.90;;;;;;5073741;28;20509;-75
2023/08/12 02:31:18;;;;;;;48.67;29.10;;;20.30;99.90;;;;;;5073357;28;20388;-74
2023/08/12 02:33:43;;;;;;;48.05;30.65;;;20.30;99.90;;;;;;5073433;28;20383;-75
2023/08/12 02:36:09;;;;;;;46.90;29.00;;;20.30;99.90;;;;;;5072122;28;20411;-75
2023/08/12 02:38:35;;;;;;;45.10;28.30;;;20.20;99.90;;;;;;5073949;28;20435;-75
2023/08/12 02:41:00;;;;;;;53.70;31.10;;;20.20;99.90;;;;;;5072510;28;20901;-75
2023/08/12 02:43:26;;;;;;;49.85;30.25;;;20.20;99.90;;;;;;5074981;28;20710;-76
2023/08/12 02:45:52;;;;;;;51.30;30.47;;;20.30;99.90;;;;;;5076757;28;20394;-76
2023/08/12 02:48:17;;;;;;;51.35;30.13;;;20.20;99.90;;;;;;5080724;28;20816;-76
2023/08/12 02:50:43;;;;;;;52.30;31.30;;;20.20;99.90;;;;;;5079779;28;20388;-75
2023/08/12 02:53:09;;;;;;;53.10;31.52;;;20.20;99.90;;;;;;5082038;28;20418;-76
2023/08/12 02:55:34;;;;;;;55.53;31.77;;;20.20;99.90;;;;;;5077032;28;20419;-76
2023/08/12 02:58:01;;;;;;;56.20;32.50;;;20.20;99.90;;;;;;5078741;28;20383;-76
2023/08/12 03:00:27;;;;;;;52.25;31.60;;;20.30;99.90;;;;;;5077916;28;20755;-76
2023/08/12 03:02:54;;;;;;;53.95;32.20;;;20.30;99.90;;;;;;5076720;28;20868;-76
2023/08/12 03:05:20;;;;;;;52.22;31.52;;;20.30;99.90;;;;;;5076640;28;20383;-76
2023/08/12 03:07:45;;;;;;;54.42;31.25;;;20.30;99.90;;;;;;5075187;28;20414;-75
2023/08/12 03:10:12;;;;;;;51.80;31.80;;;20.30;99.90;;;;;;5073933;28;20384;-73
2023/08/12 03:12:38;;;;;;;58.35;31.90;;;20.40;99.90;;;;;;5072176;28;20399;-73
2023/08/12 03:15:05;;;;;;;52.90;32.38;;;20.50;99.90;;;;;;5072359;28;20372;-74
2023/08/12 03:17:30;;;;;;;52.47;31.48;;;20.40;99.90;;;;;;5072283;28;20495;-74
2023/08/12 03:19:59;;;;;;;48.93;30.30;;;20.40;99.90;;;;;;5072355;28;20487;-73
2023/08/12 03:22:25;;;;;;;48.80;29.63;;;20.50;99.90;;;;;;5071985;28;20380;-73
2023/08/12 03:24:50;;;;;;;46.67;30.30;;;20.50;99.90;;;;;;5072117;28;20394;-73
2023/08/12 03:27:16;;;;;;;53.57;31.37;;;20.40;99.90;;;;;;5071954;28;20379;-73
2023/08/12 03:29:41;;;;;;;51.67;30.17;;;20.40;99.90;;;;;;5072157;28;20384;-72
2023/08/12 03:32:07;;;;;;;54.03;30.23;;;20.50;99.90;;;;;;5071939;28;20415;-73
2023/08/12 03:34:33;;;;;;;43.83;29.47;;;20.50;99.90;;;;;;5071996;28;20391;-73
2023/08/12 03:36:58;;;;;;;46.13;28.73;;;20.40;99.90;;;;;;5071644;28;20395;-73
2023/08/12 03:39:24;;;;;;;50.10;29.45;;;20.40;99.90;;;;;;5071696;28;20404;-73
2023/08/12 03:41:53;;;;;;;46.73;28.33;;;20.40;99.90;;;;;;5071775;28;20378;-73
2023/08/12 03:44:19;;;;;;;38.97;24.80;;;20.40;99.90;;;;;;5072478;28;20411;-74
2023/08/12 03:46:44;;;;;;;42.92;25.88;;;20.40;99.90;;;;;;5073164;28;20383;-73
2023/08/12 03:49:10;;;;;;;49.55;25.65;;;20.40;99.90;;;;;;5071644;28;20383;-73
2023/08/12 03:51:36;;;;;;;43.20;25.00;;;20.40;99.90;;;;;;5071281;28;20625;-74
2023/08/12 03:54:01;;;;;;;32.00;22.73;;;20.40;99.90;;;;;;5071729;28;20386;-74
2023/08/12 03:56:27;;;;;;;37.28;23.60;;;20.50;99.90;;;;;;5071513;28;20764;-74
2023/08/12 03:58:52;;;;;;;39.30;22.70;;;20.50;99.90;;;;;;5071536;28;20387;-73
2023/08/12 04:01:18;;;;;;;34.70;22.63;;;20.50;99.90;;;;;;5070505;28;20753;-73
2023/08/12 04:03:43;;;;;;;35.90;21.83;;;20.50;99.90;;;;;;5070121;28;20380;-74
2023/08/12 04:06:09;;;;;;;37.05;21.80;;;20.50;99.90;;;;;;5071235;28;20391;-74
2023/08/12 04:08:34;;;;;;;39.50;23.10;;;20.60;99.90;;;;;;5071198;28;20379;-74
2023/08/12 04:11:00;;;;;;;42.33;23.70;;;20.50;99.90;;;;;;5071345;28;20387;-74
2023/08/12 04:13:26;;;;;;;35.30;22.38;;;20.40;99.90;;;;;;5071155;28;20478;-73
2023/08/12 04:15:53;;;;;;;38.33;23.70;;;20.40;99.90;;;;;;5071144;28;20494;-73
2023/08/12 04:18:18;;;;;;;38.70;22.00;;;20.40;99.90;;;;;;5069886;28;20888;-73
2023/08/12 04:20:51;;;;;;;30.63;21.00;;;20.30;99.90;;;;;;5069641;28;20448;-73
2023/08/12 04:23:17;;;;;;;33.42;20.88;;;20.30;99.90;;;;;;5071011;28;20450;-73
2023/08/12 04:25:45;;;;;;;32.40;19.83;;;20.40;99.90;;;;;;5071043;28;20481;-74
2023/08/12 04:28:11;;;;;;;32.45;20.17;;;20.40;99.90;;;;;;5070959;28;20483;-73
2023/08/12 04:30:47;;;;;;;34.85;21.67;;;20.30;99.90;;;;;;5070813;28;20915;-74
2023/08/12 04:33:13;;;;;;;31.08;20.52;;;20.30;99.90;;;;;;5070478;28;20473;-72
2023/08/12 04:35:40;;;;;;;31.35;20.52;;;20.30;99.90;;;;;;5070577;28;20439;-72
2023/08/12 04:38:06;;;;;;;33.60;19.83;;;20.40;99.90;;;;;;5070962;28;20380;-72
2023/08/12 04:40:32;;;;;;;32.67;20.00;;;20.40;99.90;;;;;;5071094;28;20903;-73
2023/08/12 04:43:01;;;;;;;33.45;20.13;;;20.30;99.90;;;;;;5070423;28;20383;-73
2023/08/12 04:45:27;;;;;;;28.58;18.77;;;20.30;99.90;;;;;;5070820;28;20387;-72
2023/08/12 04:47:53;;;;;;;31.48;19.10;;;20.40;99.90;;;;;;5070854;28;20388;-73
2023/08/12 04:50:19;;;;;;;28.65;18.17;;;20.50;99.90;;;;;;5070603;28;20372;-74
2023/08/12 04:52:46;;;;;;;26.60;17.30;;;20.50;99.90;;;;;;5070459;28;20500;-74
2023/08/12 04:55:11;;;;;;;25.03;17.40;;;20.60;99.90;;;;;;5070600;28;20387;-73
2023/08/12 04:57:37;;;;;;;27.27;17.20;;;20.70;99.90;;;;;;5070478;28;20403;-73
2023/08/12 05:00:04;;;;;;;27.10;17.30;;;20.70;99.90;;;;;;5070599;28;20798;-73
2023/08/12 05:02:30;;;;;;;25.42;16.52;;;20.60;99.90;;;;;;5070328;28;20616;-73
2023/08/12 05:04:55;;;;;;;27.88;15.90;;;20.70;99.90;;;;;;5070583;28;20437;-73
2023/08/12 05:07:21;;;;;;;27.07;15.93;;;20.70;99.90;;;;;;5070643;28;20463;-74
2023/08/12 05:09:47;;;;;;;26.50;16.77;;;20.70;99.90;;;;;;5070327;28;20389;-73
2023/08/12 05:12:12;;;;;;;29.47;16.40;;;20.70;99.90;;;;;;5073539;28;20910;-72
2023/08/12 05:14:39;;;;;;;27.10;16.77;;;20.60;99.90;;;;;;5083639;28;20488;-72
2023/08/12 05:17:05;;;;;;;25.17;17.30;;;20.60;99.90;;;;;;5084478;28;20412;-76
2023/08/12 05:19:31;;;;;;;27.50;16.20;;;20.70;99.90;;;;;;5075278;28;20542;-75
2023/08/12 05:21:56;;;;;;;26.45;16.10;;;20.60;99.90;;;;;;5093040;28;20476;-73
2023/08/12 05:24:22;;;;;;;23.67;16.67;;;20.60;99.90;;;;;;5087473;28;20406;-75
2023/08/12 05:26:48;;;;;;;27.33;16.17;;;20.60;99.90;;;;;;5087937;28;20450;-77
2023/08/12 05:29:13;;;;;;;21.30;15.50;;;20.70;99.90;;;;;;5078710;28;20385;-74
2023/08/12 05:31:39;;;;;;;24.53;15.60;;;20.80;99.90;;;;;;5095284;28;20807;-74
2023/08/12 05:34:04;;;;;;;26.63;15.95;;;20.80;99.90;;;;;;5086312;28;20865;-74
2023/08/12 05:36:30;;;;;;;22.53;15.10;;;20.90;99.90;;;;;;5096579;28;20423;-74
2023/08/12 05:38:55;;;;;;;23.30;15.27;;;20.90;99.90;;;;;;5098212;28;20380;-74
2023/08/12 05:41:21;;;;;;;21.07;15.20;;;21.00;99.90;;;;;;5091768;28;20392;-76
2023/08/12 05:43:48;;;;;;;26.90;15.17;;;21.00;99.90;;;;;;5074957;28;20376;-74
2023/08/12 05:46:13;;;;;;;18.38;14.43;;;21.10;99.90;;;;;;5091461;28;20512;-74
2023/08/12 05:48:39;;;;;;;19.57;14.30;;;21.20;99.90;;;;;;5098020;28;20414;-75
2023/08/12 05:51:05;;;;;;;23.80;14.77;;;21.20;99.90;;;;;;5098752;28;20453;-75
2023/08/12 05:53:30;;;;;;;19.77;13.95;;;21.20;99.90;;;;;;5098193;28;20385;-74
2023/08/12 05:55:56;;;;;;;20.87;14.90;;;21.20;99.90;;;;;;5097334;28;20417;-74
2023/08/12 05:58:22;;;;;;;18.88;13.65;;;21.20;99.90;;;;;;5081812;28;20534;-75
2023/08/12 06:00:47;;;;;;;23.80;14.20;;;21.10;99.90;;;;;;5089760;28;20385;-75
2023/08/12 06:03:13;;;;;;;26.03;14.03;;;21.10;99.90;;;;;;5087788;28;20898;-75
2023/08/12 06:05:40;;;;;;;25.35;15.40;;;21.10;99.90;;;;;;5075363;28;20379;-74
2023/08/12 06:08:06;;;;;;;24.05;16.30;;;21.00;99.90;;;;;;5080688;28;20879;-75
2023/08/12 06:10:32;;;;;;;23.53;17.03;;;20.90;99.90;;;;;;5094428;28;20386;-76
2023/08/12 06:12:58;;;;;;;26.50;17.20;;;20.90;99.90;;;;;;5092301;28;20382;-75
2023/08/12 06:15:23;;;;;;;24.23;16.55;;;20.80;99.90;;;;;;5092010;28;20906;-75
2023/08/12 06:17:49;;;;;;;24.90;18.83;;;20.80;99.90;;;;;;5078474;28;20461;-75
2023/08/12 06:20:14;;;;;;;26.92;18.42;;;20.70;99.90;;;;;;5091244;28;20378;-75
2023/08/12 06:22:40;;;;;;;28.07;18.90;;;20.70;99.90;;;;;;5077399;28;20908;-76
2023/08/12 06:25:06;;;;;;;31.63;19.83;;;20.60;99.90;;;;;;5070811;28;20404;-76
2023/08/12 06:27:32;;;;;;;27.10;19.67;;;20.60;99.90;;;;;;5071589;28;20547;-76
2023/08/12 06:29:57;;;;;;;31.63;20.23;;;20.50;99.90;;;;;;5071787;28;20462;-76
2023/08/12 06:32:23;;;;;;;26.40;18.53;;;20.50;99.90;;;;;;5073770;28;20398;-75
2023/08/12 06:34:48;;;;;;;26.65;19.30;;;20.50;99.90;;;;;;5076892;28;20394;-74
2023/08/12 06:37:14;;;;;;;27.20;19.00;;;20.40;99.90;;;;;;5091560;28;20797;-75
2023/08/12 06:39:39;;;;;;;28.60;18.98;;;20.40;99.90;;;;;;5079029;28;20490;-75
2023/08/12 06:42:05;;;;;;;26.80;18.13;;;20.40;99.90;;;;;;5079859;28;20387;-74
2023/08/12 06:44:31;;;;;;;28.77;19.42;;;20.40;99.90;;;;;;5082995;28;20397;-74
2023/08/12 06:46:56;;;;;;;26.30;18.17;;;20.40;99.90;;;;;;5070955;28;20895;-74
2023/08/12 06:49:22;;;;;;;25.23;18.30;;;20.40;99.90;;;;;;5071099;28;20468;-74
2023/08/12 06:51:47;;;;;;;26.60;18.23;;;20.40;99.90;;;;;;5072021;28;20433;-74
2023/08/12 06:54:13;;;;;;;27.83;19.30;;;20.40;99.90;;;;;;5085602;28;20887;-75
2023/08/12 06:56:38;;;;;;;23.70;17.20;;;20.40;99.90;;;;;;5091496;28;20910;-73
2023/08/12 06:59:04;;;;;;;20.07;16.03;;;20.60;99.90;;;;;;5081485;28;20728;-73
2023/08/12 07:01:30;;;;;;;22.17;14.83;;;20.70;99.90;;;;;;5070604;28;20387;-74
2023/08/12 07:03:55;;;;;;;22.20;15.95;;;20.80;99.90;;;;;;5070840;28;20922;-74
2023/08/12 07:06:22;;;;;;;21.40;14.97;;;20.90;99.90;;;;;;5087380;28;20386;-75
2023/08/12 07:08:47;;;;;;;18.55;14.50;;;21.00;99.90;;;;;;5091818;28;20400;-75
2023/08/12 07:11:13;;;;;;;16.97;13.80;;;21.10;99.90;;;;;;5090919;28;20383;-74
2023/08/12 07:13:39;;;;;;;17.55;13.80;;;21.00;99.90;;;;;;5090962;28;20382;-74
2023/08/12 07:16:04;;;;;;;21.00;13.87;;;21.00;99.90;;;;;;5091089;28;20405;-74
2023/08/12 07:18:30;;;;;;;17.87;12.20;;;21.10;99.90;;;;;;5085196;28;20396;-75
2023/08/12 07:20:58;;;;;;;16.63;11.55;;;21.30;99.90;;;;;;5095206;28;20390;-74
2023/08/12 07:23:23;;;;;;;15.77;11.57;;;21.50;99.90;;;;;;5094252;28;20431;-75
2023/08/12 07:25:49;;;;;;;15.13;10.97;;;21.80;98.60;;;;;;5095276;28;20374;-74
2023/08/12 07:28:15;;;;;;;15.65;11.93;;;21.90;92.00;;;;;;5105764;28;20390;-75
2023/08/12 07:30:41;;;;;;;15.73;11.15;;;22.00;92.30;;;;;;5098978;28;20393;-75
2023/08/12 07:33:07;;;;;;;14.73;11.32;;;22.00;91.60;;;;;;5090147;28;20392;-75
2023/08/12 07:35:32;;;;;;;14.80;10.80;;;21.90;88.80;;;;;;5089989;28;20386;-74
2023/08/12 07:37:58;;;;;;;15.85;10.50;;;21.90;91.70;;;;;;5090415;28;20411;-74
2023/08/12 07:40:23;;;;;;;17.67;10.53;;;22.10;89.40;;;;;;5090388;28;20382;-74
2023/08/12 07:42:49;;;;;;;12.13;10.43;;;22.20;84.60;;;;;;5087890;28;20396;-74
2023/08/12 07:45:14;;;;;;;15.30;9.70;;;22.40;84.80;;;;;;5089867;28;20386;-73
2023/08/12 07:47:40;;;;;;;15.10;9.77;;;22.30;84.50;;;;;;5089957;28;20442;-74
2023/08/12 07:50:06;;;;;;;13.57;10.17;;;22.30;83.80;;;;;;5090186;28;20758;-74
2023/08/12 07:52:32;;;;;;;15.67;11.30;;;22.10;87.60;;;;;;5089749;28;20378;-76
2023/08/12 07:54:57;;;;;;;13.37;10.67;;;22.10;86.80;;;;;;5073977;28;20509;-73
2023/08/12 07:57:24;;;;;;;12.87;9.37;;;22.30;84.90;;;;;;5099076;28;20434;-73
2023/08/12 07:59:50;;;;;;;13.00;9.02;;;22.30;84.40;;;;;;5110444;28;20421;-75
2023/08/12 08:02:16;;;;;;;10.88;9.70;;;22.40;84.30;;;;;;5109788;28;20381;-76
2023/08/12 08:04:42;;;;;;;13.38;10.50;;;22.30;84.30;;;;;;5110248;28;20395;-78
2023/08/12 08:07:07;;;;;;;16.10;11.00;;;22.30;86.70;;;;;;5110225;28;20434;-74
2023/08/12 08:09:33;;;;;;;13.27;9.47;;;22.30;86.30;;;;;;5110416;28;20380;-75
2023/08/12 08:12:00;;;;;;;11.77;9.23;;;22.30;82.50;;;;;;5088801;28;20406;-74
2023/08/12 08:14:26;;;;;;;16.55;9.90;;;22.30;84.10;;;;;;5081697;28;20490;-73
2023/08/12 08:16:52;;;;;;;10.25;8.40;;;22.20;86.00;;;;;;5089249;28;20441;-73
2023/08/12 08:19:17;;;;;;;11.13;9.00;;;22.30;84.00;;;;;;5073576;28;20795;-74
2023/08/12 08:21:43;;;;;;;9.35;7.70;;;22.30;84.90;;;;;;5068895;28;20380;-75
2023/08/12 08:24:11;;;;;;;10.93;7.60;;;22.40;80.90;;;;;;5069342;28;20394;-75
2023/08/12 08:26:36;;;;;;;10.35;7.55;;;22.80;77.30;;;;;;5069340;28;20892;-75
2023/08/12 08:29:02;;;;;;;11.40;6.97;;;23.00;74.80;;;;;;5070450;28;20399;-74
2023/08/12 08:31:28;;;;;;;9.23;6.40;;;23.30;70.70;;;;;;5068819;28;20384;-74
2023/08/12 08:33:54;;;;;;;8.10;5.90;;;23.50;68.50;;;;;;5080094;28;20437;-74
2023/08/12 08:36:19;;;;;;;7.80;6.20;;;23.50;64.80;;;;;;5070104;28;20402;-73
2023/08/12 08:38:45;;;;;;;11.63;5.90;;;23.50;62.70;;;;;;5068546;28;20415;-74
2023/08/12 08:41:11;;;;;;;8.10;5.35;;;23.60;63.70;;;;;;5069743;28;20390;-74
2023/08/12 08:43:39;;;;;;;7.45;4.90;;;23.70;61.80;;;;;;5067203;28;20406;-74
2023/08/12 08:46:06;;;;;;;7.13;5.60;;;24.00;60.60;;;;;;5069957;28;20825;-74
2023/08/12 08:48:33;;;;;;;10.48;5.60;;;24.20;58.70;;;;;;5074198;28;20407;-75
2023/08/12 08:51:01;;;;;;;6.20;4.80;;;24.30;59.00;;;;;;5073865;28;21571;-76
2023/08/12 08:53:26;;;;;;;5.47;4.97;;;24.30;58.10;;;;;;5078520;28;20393;-75
2023/08/12 08:55:53;;;;;;;8.13;5.00;;;24.20;57.20;;;;;;5073549;28;20403;-75
2023/08/12 08:58:21;;;;;;;7.60;4.38;;;24.20;56.60;;;;;;5090049;28;20445;-74
2023/08/12 09:00:46;;;;;;;8.00;5.20;;;24.10;57.70;;;;;;5090616;28;20418;-74
2023/08/12 09:03:13;;;;;;;10.52;5.60;;;24.00;60.80;;;;;;5090703;28;20374;-74
2023/08/12 09:05:39;;;;;;;7.22;6.25;;;23.50;65.00;;;;;;5090885;28;20378;-72
2023/08/12 09:08:10;;;;;;;7.10;5.80;;;23.40;67.10;;;;;;5090703;28;20393;-77
2023/08/12 09:10:38;;;;;;;10.75;5.85;;;23.40;67.10;;;;;;5073180;23;20444;-73
2023/08/12 09:13:03;;;;;;;9.57;5.88;;;23.40;65.60;;;;;;5049833;28;20390;-74
2023/08/12 09:15:30;;;;;;;6.97;5.40;;;23.30;67.20;;;;;;5050411;28;20396;-72
2023/08/12 09:17:55;;;;;;;7.83;4.80;;;23.40;66.40;;;;;;5049964;28;20484;-73
2023/08/12 09:20:21;;;;;;;7.57;4.60;;;23.40;66.80;;;;;;5050329;28;20477;-74
2023/08/12 09:22:57;;;;;;;7.27;5.10;;;23.30;67.60;;;;;;5050230;28;20389;-74
2023/08/12 09:25:23;;;;;;;8.82;5.30;;;23.40;68.60;;;;;;5050723;28;20441;-74
2023/08/12 09:27:49;;;;;;;6.45;4.45;;;23.40;67.50;;;;;;5049996;28;20381;-73
2023/08/12 09:30:14;;;;;;;4.88;4.20;;;23.50;67.50;;;;;;5050039;28;20894;-75
2023/08/12 09:32:40;;;;;;;5.83;4.30;;;23.70;64.20;;;;;;5049662;28;20404;-73
2023/08/12 09:35:15;;;;;;;6.70;4.20;;;23.70;64.30;;;;;;5050001;28;20377;-74
2023/08/12 09:37:41;;;;;;;7.53;4.90;;;23.70;61.90;;;;;;5049795;28;20408;-74
2023/08/12 09:40:08;;;;;;;7.47;4.20;;;23.60;64.30;;;;;;5049894;28;20781;-74
2023/08/12 09:42:34;;;;;;;5.45;4.18;;;23.60;64.10;;;;;;5031871;28;20443;-74
2023/08/12 09:45:00;;;;;;;4.70;3.90;;;23.50;66.80;;;;;;5032557;28;20393;-76
2023/08/12 09:47:27;;;;;;;5.28;4.30;;;23.60;66.00;;;;;;5050034;28;20475;-74
2023/08/12 09:49:52;;;;;;;6.47;3.85;;;23.60;66.20;;;;;;5049753;28;20394;-74
2023/08/12 09:52:18;;;;;;;4.53;3.80;;;23.70;66.00;;;;;;5049138;28;20488;-74
2023/08/12 09:54:44;;;;;;;6.37;3.70;;;23.90;63.60;;;;;;5043278;28;20445;-75
2023/08/12 09:57:12;;;;;;;7.25;3.20;;;24.50;60.90;;;;;;5026918;28;20463;-75
2023/08/12 09:59:41;;;;;;;3.83;2.80;;;24.90;55.20;;;;;;5037671;28;20476;-76
2023/08/12 10:02:09;;;;;;;3.60;2.80;;;25.20;52.20;;;;;;5051538;28;20373;-77
2023/08/12 10:04:40;;;;;;;2.67;1.90;;;25.50;50.10;;;;;;5054217;28;20842;-75
2023/08/12 10:07:07;;;;;;;5.00;2.38;;;25.90;46.40;;;;;;5054590;28;20823;-74
2023/08/12 10:09:33;;;;;;;2.40;2.03;;;25.90;44.90;;;;;;5050758;28;20411;-75
2023/08/12 10:11:59;;;;;;;5.30;2.30;;;25.70;45.90;;;;;;5050572;28;20476;-74
2023/08/12 10:14:25;;;;;;;3.27;2.40;;;25.30;47.20;;;;;;5052360;28;20391;-76
2023/08/12 10:16:52;;;;;;;4.45;2.10;;;25.10;47.40;;;;;;5052091;28;20494;-77
2023/08/12 10:19:21;;;;;;;2.90;2.40;;;24.90;49.50;;;;;;5050176;28;20404;-74
2023/08/12 10:21:49;;;;;;;3.80;2.30;;;24.80;50.10;;;;;;5031148;28;20387;-74
2023/08/12 10:24:16;;;;;;;2.92;2.20;;;24.70;51.00;;;;;;5051102;28;20490;-74
2023/08/12 10:26:42;;;;;;;2.20;2.00;;;24.70;51.90;;;;;;5050460;28;20453;-73
2023/08/12 10:29:08;;;;;;;10.80;2.30;;;24.60;50.70;;;;;;5050728;28;20476;-73
2023/08/12 10:31:34;;;;;;;5.45;2.42;;;24.40;51.50;;;;;;5048975;28;20389;-74
2023/08/12 10:34:00;;;;;;;2.35;1.90;;;24.50;52.90;;;;;;5051215;28;20405;-74
2023/08/12 10:36:26;;;;;;;2.70;1.90;;;24.60;49.80;;;;;;5035422;28;20772;-74
2023/08/12 10:38:52;;;;;;;2.33;1.88;;;24.60;51.10;;;;;;5032002;28;20390;-75
2023/08/12 10:41:23;;;;;;;2.20;1.90;;;24.50;50.70;;;;;;5032819;28;20383;-76
2023/08/12 10:43:59;;;;;;;2.72;1.50;;;24.00;56.30;;;;;;5040377;28;20886;-75
2023/08/12 10:46:31;;;;;;;3.60;1.40;;;23.70;61.90;;;;;;5051835;28;20404;-75
2023/08/12 10:49:04;;;;;;;4.50;1.70;;;23.80;63.40;;;;;;5051521;28;20389;-75
2023/08/12 10:51:59;;;;;;;2.80;1.60;;;23.80;63.20;;;;;;5034389;28;20394;-74
2023/08/12 10:54:27;;;;;;;3.10;1.80;;;24.00;61.50;;;;;;5039316;28;20397;-75
2023/08/12 10:57:04;;;;;;;1.88;1.40;;;24.20;61.10;;;;;;5052383;28;20712;-75
2023/08/12 10:59:44;;;;;;;4.95;2.03;;;24.30;58.30;;;;;;5052324;28;20750;-75
2023/08/12 11:02:21;;;;;;;1.67;1.40;;;24.20;62.50;;;;;;5052405;28;20386;-75
2023/08/12 11:05:14;;;;;;;3.43;1.60;;;24.20;58.80;;;;;;5052885;28;20377;-75
2023/08/12 11:07:47;;;;;;;2.63;1.55;;;24.40;59.70;;;;;;5032988;28;20471;-75
2023/08/12 11:10:17;;;;;;;1.60;1.50;;;24.60;55.50;;;;;;5051319;28;20451;-75
2023/08/12 11:12:58;;;;;;;2.25;1.73;;;25.10;53.70;;;;;;5052794;28;20870;-75
2023/08/12 11:15:36;;;;;;;1.70;1.60;;;25.60;51.80;;;;;;5055148;28;20757;-75
2023/08/12 11:18:04;;;;;;;1.50;1.40;;;25.90;47.80;;;;;;5053853;28;20897;-76
2023/08/12 11:20:30;;;;;;;1.80;1.70;;;26.10;48.30;;;;;;5035015;28;20439;-76
2023/08/12 11:22:58;;;;;;;3.30;2.00;;;26.30;48.30;;;;;;5051973;28;20412;-76
2023/08/12 11:25:24;;;;;;;3.30;1.70;;;26.40;45.60;;;;;;5051940;28;20373;-74
2023/08/12 11:27:49;;;;;;;3.30;2.20;;;26.60;44.70;;;;;;5051962;28;20515;-74
2023/08/12 11:30:19;;;;;;;2.60;1.40;;;26.70;44.20;;;;;;5051966;28;20396;-75
2023/08/12 11:32:47;;;;;;;2.33;1.75;;;27.10;42.30;;;;;;5051369;28;20416;-74
2023/08/12 11:35:15;;;;;;;3.08;1.70;;;27.20;41.30;;;;;;5051816;28;20385;-74
2023/08/12 11:37:43;;;;;;;2.60;1.70;;;27.30;40.50;;;;;;5052168;28;20409;-74
2023/08/12 11:40:10;;;;;;;2.00;1.67;;;27.40;39.00;;;;;;5051762;28;20461;-74
2023/08/12 11:42:40;;;;;;;2.10;1.40;;;27.30;38.00;;;;;;5051722;28;20383;-74
2023/08/12 11:45:07;;;;;;;1.30;1.02;;;27.00;39.30;;;;;;5051867;28;20468;-73
2023/08/12 11:47:40;;;;;;;1.90;1.20;;;26.90;39.10;;;;;;5051967;28;20424;-74
2023/08/12 11:50:08;;;;;;;1.77;1.67;;;27.00;41.80;;;;;;5033742;28;20392;-74
2023/08/12 11:52:35;;;;;;;1.60;1.10;;;27.10;40.20;;;;;;5051493;28;20394;-73
2023/08/12 11:55:00;;;;;;;1.75;1.40;;;27.60;37.40;;;;;;5051836;28;20395;-74
2023/08/12 11:57:27;;;;;;;1.70;1.45;;;27.90;34.80;;;;;;5051540;28;20783;-74
2023/08/12 12:00:00;;;;;;;1.77;1.02;;;28.20;36.00;;;;;;5051719;28;20861;-75
2023/08/12 12:02:26;;;;;;;1.60;1.00;;;28.20;34.20;;;;;;5051449;28;20397;-75
2023/08/12 12:04:55;;;;;;;1.20;1.00;;;27.80;35.50;;;;;;5051780;28;20435;-74
2023/08/12 12:07:27;;;;;;;1.40;1.20;;;27.70;36.40;;;;;;5051414;28;20377;-75
2023/08/12 12:09:54;;;;;;;1.98;1.40;;;27.80;35.50;;;;;;5051376;28;20405;-74
2023/08/12 12:12:26;;;;;;;2.05;1.02;;;28.20;36.80;;;;;;5050932;28;20492;-76
2023/08/12 12:14:56;;;;;;;1.10;0.90;;;28.70;34.10;;;;;;5034108;28;20393;-75
2023/08/12 12:17:24;;;;;;;1.50;1.30;;;28.30;33.10;;;;;;5052010;28;20767;-75
2023/08/12 12:19:57;;;;;;;1.52;1.10;;;27.80;34.00;;;;;;5053043;28;20381;-76
2023/08/12 12:22:30;;;;;;;1.90;1.30;;;27.30;35.60;;;;;;5052937;28;20882;-76
2023/08/12 12:25:05;;;;;;;1.30;1.10;;;27.00;37.20;;;;;;5054391;28;20472;-75
2023/08/12 12:27:31;;;;;;;3.85;1.17;;;26.70;37.20;;;;;;5054049;28;20381;-75
2023/08/12 12:29:56;;;;;;;2.47;1.10;;;25.90;40.70;;;;;;5036671;28;20543;-75
2023/08/12 12:32:23;;;;;;;2.23;1.27;;;24.50;50.70;;;;;;5036174;28;20536;-75